Time;durP1;ratioP1;P1;durP2;ratioP2;P2;SDS_P1;SDS_P2;PMS_P1;PMS_P2;Temp;Humidity;BMP_temperature;BMP_pressure;BME280_temperature;BME280_humidity;BME280_pressure;Samples;Min_cycle;Max_cycle;Signal;HPM_P1;HPM_P2
2022/07/23 00:00:03;;;;;;;4.25;2.72;;;;;;;;;;5039980;28;20273;-68
2022/07/23 00:02:28;;;;;;;8.43;2.90;;;;;;;;;;5006604;28;20207;-69
2022/07/23 00:04:53;;;;;;;5.93;2.60;;;;;;;;;;5022891;28;20325;-69
2022/07/23 00:07:19;;;;;;;5.18;2.80;;;;;;;;;;5019806;28;20216;-69
2022/07/23 00:09:44;;;;;;;7.60;2.90;;;;;;;;;;5021126;28;20222;-69
2022/07/23 00:12:09;;;;;;;5.47;3.13;;;;;;;;;;5020496;28;20204;-69
2022/07/23 00:14:34;;;;;;;6.97;3.10;;;;;;;;;;5020987;28;20222;-69
2022/07/23 00:17:00;;;;;;;5.47;3.42;;;;;;;;;;5021839;28;20208;-69
2022/07/23 00:19:25;;;;;;;5.70;3.20;;;;;;;;;;5021710;28;20211;-69
2022/07/23 00:21:50;;;;;;;7.97;3.42;;;;;;;;;;5040034;28;20245;-69
2022/07/23 00:24:16;;;;;;;10.25;4.10;;;;;;;;;;5039784;28;20643;-69
2022/07/23 00:26:41;;;;;;;6.28;3.38;;;;;;;;;;5021013;28;20393;-69
2022/07/23 00:29:06;;;;;;;9.75;3.60;;;;;;;;;;5020159;28;20319;-69
2022/07/23 00:31:32;;;;;;;9.70;3.83;;;;;;;;;;5021052;28;20215;-69
2022/07/23 00:33:57;;;;;;;6.40;3.92;;;;;;;;;;5020648;28;20203;-69
2022/07/23 00:36:23;;;;;;;7.95;4.18;;;;;;;;;;5019741;28;20269;-69
2022/07/23 00:38:49;;;;;;;6.15;3.30;;;;;;;;;;5020702;28;20220;-69
2022/07/23 00:41:14;;;;;;;7.35;3.60;;;;;;;;;;5021908;28;20231;-70
2022/07/23 00:43:39;;;;;;;7.13;4.35;;;;;;;;;;5039687;28;20678;-69
2022/07/23 00:46:05;;;;;;;7.80;4.03;;;;;;;;;;5040051;28;20290;-69
2022/07/23 00:48:30;;;;;;;8.27;4.50;;;;;;;;;;5039906;28;20273;-69
2022/07/23 00:50:55;;;;;;;9.90;4.43;;;;;;;;;;5039958;28;20732;-69
2022/07/23 00:53:20;;;;;;;9.90;4.65;;;;;;;;;;5022336;28;20304;-69
2022/07/23 00:55:46;;;;;;;7.93;4.57;;;;;;;;;;5039511;28;20250;-69
2022/07/23 00:58:11;;;;;;;10.02;4.57;;;;;;;;;;5039931;28;20207;-69
2022/07/23 01:00:37;;;;;;;7.38;4.63;;;;;;;;;;5040409;28;20249;-69
2022/07/23 01:03:02;;;;;;;9.77;4.88;;;;;;;;;;5036455;28;21042;-68
2022/07/23 01:05:27;;;;;;;7.82;4.63;;;;;;;;;;5021172;28;20286;-69
2022/07/23 01:07:53;;;;;;;10.43;4.97;;;;;;;;;;5020110;28;20211;-69
2022/07/23 01:10:30;;;;;;;9.35;4.45;;;;;;;;;;5019156;28;20718;-69
2022/07/23 01:12:56;;;;;;;6.00;4.43;;;;;;;;;;5039844;28;20262;-69
2022/07/23 01:15:21;;;;;;;7.53;4.35;;;;;;;;;;5027720;28;20211;-69
2022/07/23 01:17:46;;;;;;;9.60;4.88;;;;;;;;;;5019955;28;20299;-69
2022/07/23 01:20:12;;;;;;;9.15;4.65;;;;;;;;;;5020199;28;20227;-69
2022/07/23 01:22:37;;;;;;;7.00;4.70;;;;;;;;;;5022083;28;20245;-69
2022/07/23 01:25:02;;;;;;;8.18;4.18;;;;;;;;;;5024691;28;20664;-68
2022/07/23 01:27:28;;;;;;;8.18;4.07;;;;;;;;;;5043966;28;20290;-68
2022/07/23 01:29:54;;;;;;;7.47;4.50;;;;;;;;;;5032717;28;20266;-69
2022/07/23 01:32:19;;;;;;;9.32;4.57;;;;;;;;;;5042229;28;20294;-68
2022/07/23 01:34:45;;;;;;;10.27;4.88;;;;;;;;;;5043261;28;20310;-68
2022/07/23 01:37:10;;;;;;;7.63;4.57;;;;;;;;;;5042461;28;20207;-68
2022/07/23 01:39:35;;;;;;;11.27;4.47;;;;;;;;;;5042593;28;20293;-68
2022/07/23 01:42:01;;;;;;;13.25;4.88;;;;;;;;;;5043551;28;20207;-66
2022/07/23 01:44:26;;;;;;;9.43;4.30;;;;;;;;;;5023751;28;20506;-68
2022/07/23 01:46:51;;;;;;;6.40;4.32;;;;;;;;;;5023955;28;20234;-69
2022/07/23 01:49:16;;;;;;;9.63;4.10;;;;;;;;;;5022692;28;20262;-68
2022/07/23 01:51:59;;;;;;;8.27;4.35;;;;;;;;;;5024946;28;20668;-69
2022/07/23 01:54:25;;;;;;;5.55;3.60;;;;;;;;;;5042503;28;20207;-68
2022/07/23 01:56:50;;;;;;;7.95;4.35;;;;;;;;;;5043541;28;20207;-68
2022/07/23 01:59:15;;;;;;;7.75;4.18;;;;;;;;;;5041542;28;20266;-68
2022/07/23 02:01:41;;;;;;;6.10;3.88;;;;;;;;;;5043262;28;20215;-68
2022/07/23 02:04:06;;;;;;;6.43;4.00;;;;;;;;;;5020958;28;20216;-68
2022/07/23 02:06:31;;;;;;;8.98;4.22;;;;;;;;;;5011628;28;20555;-68
2022/07/23 02:08:57;;;;;;;7.50;4.15;;;;;;;;;;5042111;28;20219;-68
2022/07/23 02:11:22;;;;;;;6.57;3.90;;;;;;;;;;5042838;28;20213;-68
2022/07/23 02:13:47;;;;;;;10.25;4.95;;;;;;;;;;5041725;28;20219;-68
2022/07/23 02:16:13;;;;;;;8.82;4.00;;;;;;;;;;5023652;28;20694;-67
2022/07/23 02:18:38;;;;;;;9.43;4.15;;;;;;;;;;5023287;28;20605;-68
2022/07/23 02:21:03;;;;;;;10.50;3.90;;;;;;;;;;5021505;28;21346;-68
2022/07/23 02:23:29;;;;;;;6.68;3.75;;;;;;;;;;5023364;28;20246;-68
2022/07/23 02:25:54;;;;;;;5.65;3.60;;;;;;;;;;5022701;28;20299;-69
2022/07/23 02:28:19;;;;;;;9.90;4.30;;;;;;;;;;5022163;28;20220;-68
2022/07/23 02:30:44;;;;;;;6.25;3.60;;;;;;;;;;5006172;28;20586;-69
2022/07/23 02:33:10;;;;;;;7.25;3.60;;;;;;;;;;5020552;28;20642;-68
2022/07/23 02:35:35;;;;;;;6.53;3.70;;;;;;;;;;5021969;28;20291;-69
2022/07/23 02:38:00;;;;;;;8.95;4.03;;;;;;;;;;5022110;28;20274;-66
2022/07/23 02:40:26;;;;;;;7.55;3.83;;;;;;;;;;5022700;28;20272;-68
2022/07/23 02:42:51;;;;;;;8.63;3.92;;;;;;;;;;5022298;28;20208;-68
2022/07/23 02:45:16;;;;;;;8.52;3.40;;;;;;;;;;5021949;28;20296;-68
2022/07/23 02:47:41;;;;;;;8.10;3.65;;;;;;;;;;5022934;28;20233;-68
2022/07/23 02:50:07;;;;;;;6.47;3.72;;;;;;;;;;5020838;28;20224;-68
2022/07/23 02:52:32;;;;;;;7.18;3.50;;;;;;;;;;5024467;28;20655;-69
2022/07/23 02:54:58;;;;;;;6.55;3.38;;;;;;;;;;5041612;28;20618;-69
2022/07/23 02:57:23;;;;;;;6.15;3.63;;;;;;;;;;5023279;28;20219;-69
2022/07/23 02:59:48;;;;;;;6.60;3.35;;;;;;;;;;5041695;28;20262;-69
2022/07/23 03:02:13;;;;;;;6.88;3.25;;;;;;;;;;5040529;28;20225;-68
2022/07/23 03:04:42;;;;;;;6.90;3.65;;;;;;;;;;5026237;28;20216;-68
2022/07/23 03:07:07;;;;;;;7.13;3.55;;;;;;;;;;5022902;28;20208;-67
2022/07/23 03:09:32;;;;;;;8.82;3.53;;;;;;;;;;5021392;28;20207;-68
2022/07/23 03:11:58;;;;;;;6.05;3.45;;;;;;;;;;5022520;28;20200;-68
2022/07/23 03:14:23;;;;;;;9.75;3.50;;;;;;;;;;5019178;28;20219;-68
2022/07/23 03:16:49;;;;;;;7.32;3.67;;;;;;;;;;5021769;28;20686;-68
2022/07/23 03:19:15;;;;;;;6.57;3.40;;;;;;;;;;5040491;28;20217;-69
2022/07/23 03:21:40;;;;;;;9.35;3.35;;;;;;;;;;5023544;28;20223;-68
2022/07/23 03:24:08;;;;;;;6.18;3.30;;;;;;;;;;5040109;28;20298;-66
2022/07/23 03:26:33;;;;;;;6.22;3.22;;;;;;;;;;5041272;28;20250;-65
2022/07/23 03:29:01;;;;;;;7.63;3.50;;;;;;;;;;5038205;28;20231;-66
2022/07/23 03:31:26;;;;;;;7.78;3.05;;;;;;;;;;5022123;28;20243;-69
2022/07/23 03:33:51;;;;;;;4.82;3.08;;;;;;;;;;5041218;28;20250;-69
2022/07/23 03:36:16;;;;;;;5.80;2.90;;;;;;;;;;5040601;28;20207;-69
2022/07/23 03:38:42;;;;;;;5.82;2.97;;;;;;;;;;5040587;28;20825;-69
2022/07/23 03:41:07;;;;;;;6.35;3.28;;;;;;;;;;5040596;28;20755;-67
2022/07/23 03:43:33;;;;;;;5.65;3.20;;;;;;;;;;5041348;28;20203;-68
2022/07/23 03:45:58;;;;;;;5.30;3.25;;;;;;;;;;5039704;28;20215;-68
2022/07/23 03:48:23;;;;;;;7.72;3.08;;;;;;;;;;5022756;28;20214;-68
2022/07/23 03:50:48;;;;;;;4.53;3.00;;;;;;;;;;5040869;28;20264;-68
2022/07/23 03:53:14;;;;;;;5.05;3.20;;;;;;;;;;5039536;28;20636;-67
2022/07/23 03:55:39;;;;;;;8.35;2.83;;;;;;;;;;5041192;28;20249;-67
2022/07/23 03:58:04;;;;;;;5.28;2.88;;;;;;;;;;5040553;28;20219;-67
2022/07/23 04:00:30;;;;;;;9.23;2.83;;;;;;;;;;5022527;28;20226;-69
2022/07/23 04:02:55;;;;;;;4.65;2.90;;;;;;;;;;5038751;28;20332;-69
2022/07/23 04:05:20;;;;;;;7.20;2.92;;;;;;;;;;5020435;28;20609;-68
2022/07/23 04:07:45;;;;;;;6.28;3.00;;;;;;;;;;5021201;28;20768;-68
2022/07/23 04:10:11;;;;;;;5.93;2.63;;;;;;;;;;5020507;28;20274;-67
2022/07/23 04:12:36;;;;;;;5.35;3.08;;;;;;;;;;5020966;28;20211;-68
2022/07/23 04:15:02;;;;;;;4.07;2.88;;;;;;;;;;5030877;28;20568;-67
2022/07/23 04:17:28;;;;;;;5.50;2.78;;;;;;;;;;5021271;28;20242;-68
2022/07/23 04:19:53;;;;;;;6.93;2.63;;;;;;;;;;5039758;28;20242;-68
2022/07/23 04:22:18;;;;;;;5.03;2.80;;;;;;;;;;5022368;28;20218;-68
2022/07/23 04:24:43;;;;;;;6.72;2.70;;;;;;;;;;5040798;28;20242;-68
2022/07/23 04:27:09;;;;;;;4.60;2.80;;;;;;;;;;5039597;28;20210;-67
2022/07/23 04:29:34;;;;;;;7.28;3.35;;;;;;;;;;5019695;28;20220;-68
2022/07/23 04:31:59;;;;;;;8.38;2.67;;;;;;;;;;5045812;28;20341;-68
2022/07/23 04:34:26;;;;;;;7.68;2.53;;;;;;;;;;5049362;28;20288;-67
2022/07/23 04:36:52;;;;;;;6.43;2.60;;;;;;;;;;5033153;28;20294;-67
2022/07/23 04:39:17;;;;;;;6.78;2.90;;;;;;;;;;5050247;28;20695;-68
2022/07/23 04:41:42;;;;;;;3.92;2.55;;;;;;;;;;5049840;28;20762;-68
2022/07/23 04:44:07;;;;;;;5.72;2.35;;;;;;;;;;5050532;28;20217;-67
2022/07/23 04:46:33;;;;;;;3.70;2.10;;;;;;;;;;5050884;28;20666;-68
2022/07/23 04:48:58;;;;;;;5.32;2.33;;;;;;;;;;5049839;28;20306;-68
2022/07/23 04:51:23;;;;;;;5.60;2.17;;;;;;;;;;5050197;28;20254;-68
2022/07/23 04:53:49;;;;;;;5.25;1.80;;;;;;;;;;5050775;28;20212;-69
2022/07/23 04:56:14;;;;;;;3.88;1.75;;;;;;;;;;5049608;28;20211;-67
2022/07/23 04:58:40;;;;;;;4.50;2.03;;;;;;;;;;5052078;28;20231;-69
2022/07/23 05:01:05;;;;;;;7.38;1.90;;;;;;;;;;5054040;28;20577;-68
2022/07/23 05:03:30;;;;;;;2.88;1.52;;;;;;;;;;5053765;28;20215;-66
2022/07/23 05:05:56;;;;;;;7.40;2.00;;;;;;;;;;5024085;28;20699;-67
2022/07/23 05:08:21;;;;;;;7.10;1.67;;;;;;;;;;5024251;28;20666;-67
2022/07/23 05:10:46;;;;;;;4.28;1.85;;;;;;;;;;5023577;28;20243;-68
2022/07/23 05:13:12;;;;;;;5.03;1.80;;;;;;;;;;5024143;28;20308;-68
2022/07/23 05:15:38;;;;;;;3.80;1.60;;;;;;;;;;5012106;28;20234;-67
2022/07/23 05:18:03;;;;;;;6.60;1.77;;;;;;;;;;5023330;28;20218;-67
2022/07/23 05:20:28;;;;;;;3.13;1.48;;;;;;;;;;5023805;28;20223;-68
2022/07/23 05:22:54;;;;;;;3.92;1.70;;;;;;;;;;5023685;28;20360;-68
2022/07/23 05:25:19;;;;;;;5.68;1.80;;;;;;;;;;5023416;28;20234;-67
2022/07/23 05:27:44;;;;;;;5.20;1.50;;;;;;;;;;5024170;28;20255;-67
2022/07/23 05:30:10;;;;;;;5.93;1.50;;;;;;;;;;5022902;28;20699;-66
2022/07/23 05:32:36;;;;;;;4.05;1.48;;;;;;;;;;5024179;28;20427;-67
2022/07/23 05:35:02;;;;;;;4.20;1.70;;;;;;;;;;5023841;28;20211;-67
2022/07/23 05:37:28;;;;;;;5.22;1.80;;;;;;;;;;5042189;28;20290;-68
2022/07/23 05:39:53;;;;;;;4.65;1.50;;;;;;;;;;5022421;28;20306;-67
2022/07/23 05:42:18;;;;;;;4.50;1.63;;;;;;;;;;5023231;28;20251;-68
2022/07/23 05:44:45;;;;;;;4.15;1.70;;;;;;;;;;5023304;28;20211;-67
2022/07/23 05:47:10;;;;;;;4.00;1.60;;;;;;;;;;5024817;28;20223;-69
2022/07/23 05:49:36;;;;;;;7.60;1.75;;;;;;;;;;5044074;28;20248;-70
2022/07/23 05:52:03;;;;;;;6.60;1.70;;;;;;;;;;5054546;28;20230;-68
2022/07/23 05:54:29;;;;;;;6.15;1.98;;;;;;;;;;5059556;28;20604;-68
2022/07/23 05:56:54;;;;;;;6.93;1.80;;;;;;;;;;5057854;28;20206;-68
2022/07/23 05:59:19;;;;;;;6.93;2.20;;;;;;;;;;5034424;28;20235;-68
2022/07/23 06:01:45;;;;;;;6.00;2.00;;;;;;;;;;5055863;28;20942;-71
2022/07/23 06:04:10;;;;;;;5.90;1.95;;;;;;;;;;5061724;28;20686;-68
2022/07/23 06:06:35;;;;;;;10.40;2.53;;;;;;;;;;5055887;28;20252;-72
2022/07/23 06:09:00;;;;;;;5.50;2.10;;;;;;;;;;5036810;28;20794;-70
2022/07/23 06:11:26;;;;;;;5.63;2.55;;;;;;;;;;5060508;28;20681;-70
2022/07/23 06:13:51;;;;;;;8.32;2.20;;;;;;;;;;5052317;28;20257;-70
2022/07/23 06:16:16;;;;;;;8.10;2.10;;;;;;;;;;5052676;28;20211;-70
2022/07/23 06:18:42;;;;;;;12.10;2.75;;;;;;;;;;5055560;28;20221;-70
2022/07/23 06:21:07;;;;;;;5.55;1.88;;;;;;;;;;5041968;28;20234;-68
2022/07/23 06:23:32;;;;;;;4.53;1.63;;;;;;;;;;5044857;28;20214;-72
2022/07/23 06:25:57;;;;;;;4.45;1.70;;;;;;;;;;5063023;28;20195;-70
2022/07/23 06:28:23;;;;;;;5.22;1.90;;;;;;;;;;5042219;28;20577;-70
2022/07/23 06:30:48;;;;;;;6.72;1.60;;;;;;;;;;5054144;28;20696;-69
2022/07/23 06:33:13;;;;;;;4.00;1.67;;;;;;;;;;5067269;28;20230;-70
2022/07/23 06:35:39;;;;;;;6.40;1.65;;;;;;;;;;5062621;28;20286;-69
2022/07/23 06:38:04;;;;;;;5.82;1.50;;;;;;;;;;5067107;28;20578;-66
2022/07/23 06:40:29;;;;;;;4.88;1.58;;;;;;;;;;5054067;28;20222;-69
2022/07/23 06:42:55;;;;;;;6.43;1.75;;;;;;;;;;5072557;28;20549;-70
2022/07/23 06:45:20;;;;;;;6.18;1.50;;;;;;;;;;5071635;28;20230;-70
2022/07/23 06:47:45;;;;;;;4.20;1.50;;;;;;;;;;5059873;28;20658;-69
2022/07/23 06:50:11;;;;;;;2.75;1.35;;;;;;;;;;5051483;28;20207;-72
2022/07/23 06:52:37;;;;;;;5.18;1.58;;;;;;;;;;5054971;28;20211;-70
2022/07/23 06:55:03;;;;;;;5.05;1.80;;;;;;;;;;5044833;28;20283;-69
2022/07/23 06:57:28;;;;;;;4.57;1.70;;;;;;;;;;5061997;28;20203;-68
2022/07/23 06:59:53;;;;;;;4.60;1.60;;;;;;;;;;5059894;28;20226;-68
2022/07/23 07:02:18;;;;;;;3.08;1.45;;;;;;;;;;5061004;28;20606;-73
2022/07/23 07:04:44;;;;;;;6.63;0.90;;;;;;;;;;5034465;28;20207;-72
2022/07/23 07:07:09;;;;;;;3.90;1.10;;;;;;;;;;5051407;28;20218;-74
2022/07/23 07:09:34;;;;;;;3.75;1.10;;;;;;;;;;5033376;28;20215;-72
2022/07/23 07:12:00;;;;;;;2.97;1.00;;;;;;;;;;5052282;28;20318;-72
2022/07/23 07:14:25;;;;;;;4.07;1.00;;;;;;;;;;5051801;28;20301;-72
2022/07/23 07:16:50;;;;;;;5.53;2.10;;;;;;;;;;5051403;28;20207;-71
2022/07/23 07:19:16;;;;;;;5.72;1.65;;;;;;;;;;5051623;28;20234;-70
2022/07/23 07:21:41;;;;;;;5.00;1.70;;;;;;;;;;5050821;28;20218;-69
2022/07/23 07:24:06;;;;;;;4.28;1.50;;;;;;;;;;5050333;28;20222;-73
2022/07/23 07:26:32;;;;;;;3.67;1.50;;;;;;;;;;5051958;28;20222;-71
2022/07/23 07:28:57;;;;;;;3.70;1.60;;;;;;;;;;5051799;28;20669;-71
2022/07/23 07:31:22;;;;;;;4.70;1.58;;;;;;;;;;5050473;28;20218;-72
2022/07/23 07:33:48;;;;;;;6.57;1.20;;;;;;;;;;5051755;28;20207;-72
2022/07/23 07:36:13;;;;;;;4.72;1.38;;;;;;;;;;5033162;28;20215;-71
2022/07/23 07:38:38;;;;;;;4.53;1.30;;;;;;;;;;5032830;28;20249;-72
2022/07/23 07:41:04;;;;;;;3.10;1.17;;;;;;;;;;5051026;28;20306;-70
2022/07/23 07:43:29;;;;;;;5.82;1.23;;;;;;;;;;5050906;28;20211;-72
2022/07/23 07:45:54;;;;;;;4.47;1.50;;;;;;;;;;5051653;28;20203;-69
2022/07/23 07:48:20;;;;;;;5.45;1.25;;;;;;;;;;5051048;28;20396;-69
2022/07/23 07:50:45;;;;;;;2.63;1.10;;;;;;;;;;5052760;28;20286;-69
2022/07/23 07:53:10;;;;;;;5.82;1.20;;;;;;;;;;5058956;28;20303;-71
2022/07/23 07:55:36;;;;;;;4.40;1.10;;;;;;;;;;5068247;28;20206;-70
2022/07/23 07:58:01;;;;;;;5.20;1.30;;;;;;;;;;5035603;28;20228;-69
2022/07/23 08:00:26;;;;;;;3.28;1.30;;;;;;;;;;5053173;28;20284;-71
2022/07/23 08:02:52;;;;;;;3.03;1.08;;;;;;;;;;5057445;28;20261;-73
2022/07/23 08:05:19;;;;;;;3.50;1.13;;;;;;;;;;5041883;28;20252;-73
2022/07/23 08:07:44;;;;;;;2.97;1.25;;;;;;;;;;5055883;28;20600;-70
2022/07/23 08:10:10;;;;;;;2.42;1.00;;;;;;;;;;5050618;28;20207;-70
2022/07/23 08:12:39;;;;;;;4.63;1.00;;;;;;;;;;5050490;28;20210;-70
2022/07/23 08:15:05;;;;;;;2.25;1.15;;;;;;;;;;5050601;28;20203;-72
2022/07/23 08:17:30;;;;;;;7.57;1.08;;;;;;;;;;5033778;28;20623;-73
2022/07/23 08:19:56;;;;;;;2.20;0.90;;;;;;;;;;5050056;28;20739;-72
2022/07/23 08:22:21;;;;;;;4.60;1.30;;;;;;;;;;5050472;28;20213;-70
2022/07/23 08:24:46;;;;;;;4.10;1.35;;;;;;;;;;5050818;28;20203;-73
2022/07/23 08:27:12;;;;;;;2.92;1.02;;;;;;;;;;5031822;28;20338;-72
2022/07/23 08:29:37;;;;;;;1.63;1.02;;;;;;;;;;5051081;28;20233;-75
2022/07/23 08:32:02;;;;;;;8.30;1.20;;;;;;;;;;5051064;28;20686;-75
2022/07/23 08:34:28;;;;;;;3.85;1.27;;;;;;;;;;5054041;28;20277;-75
2022/07/23 08:36:53;;;;;;;4.70;1.20;;;;;;;;;;5055001;28;20210;-74
2022/07/23 08:39:18;;;;;;;5.20;1.70;;;;;;;;;;5054087;28;20265;-72
2022/07/23 08:41:44;;;;;;;2.38;1.00;;;;;;;;;;5036167;28;20243;-74
2022/07/23 08:44:09;;;;;;;2.80;1.10;;;;;;;;;;5036701;28;20293;-72
2022/07/23 08:46:34;;;;;;;4.05;1.10;;;;;;;;;;5054915;28;20221;-73
2022/07/23 08:49:00;;;;;;;4.03;1.00;;;;;;;;;;5054020;28;20207;-77
2022/07/23 08:51:25;;;;;;;3.30;1.00;;;;;;;;;;5054309;28;20211;-72
2022/07/23 08:53:50;;;;;;;1.90;0.82;;;;;;;;;;5035684;28;20215;-72
2022/07/23 08:56:16;;;;;;;5.40;1.20;;;;;;;;;;5054044;28;20527;-75
2022/07/23 08:58:41;;;;;;;4.68;1.17;;;;;;;;;;5054573;28;20284;-75
2022/07/23 09:01:06;;;;;;;4.82;1.45;;;;;;;;;;5053126;28;20261;-75
2022/07/23 09:03:32;;;;;;;4.45;1.48;;;;;;;;;;5054767;28;20226;-76
2022/07/23 09:05:58;;;;;;;3.80;0.90;;;;;;;;;;5054469;28;20257;-75
2022/07/23 09:08:25;;;;;;;3.67;1.13;;;;;;;;;;5052882;28;20207;-73
2022/07/23 09:10:51;;;;;;;7.43;1.20;;;;;;;;;;5036417;28;20681;-77
2022/07/23 09:13:36;;;;;;;6.20;1.30;;;;;;;;;;5054030;28;20233;-75
2022/07/23 09:16:04;;;;;;;5.22;1.27;;;;;;;;;;5053139;28;20203;-76
2022/07/23 09:18:30;;;;;;;8.50;1.40;;;;;;;;;;5036008;28;20211;-75
2022/07/23 09:21:06;;;;;;;2.72;0.90;;;;;;;;;;5036146;28;20300;-74
2022/07/23 09:23:38;;;;;;;3.83;1.17;;;;;;;;;;5052699;28;20207;-73
2022/07/23 09:26:07;;;;;;;3.17;1.33;;;;;;;;;;5052689;28;20218;-73
2022/07/23 09:28:32;;;;;;;3.15;1.30;;;;;;;;;;5052618;28;20207;-74
2022/07/23 09:30:57;;;;;;;3.03;1.30;;;;;;;;;;5031871;28;20298;-76
2022/07/23 09:33:24;;;;;;;4.68;1.02;;;;;;;;;;5033559;28;20290;-74
2022/07/23 09:35:50;;;;;;;7.07;1.10;;;;;;;;;;5032518;28;20208;-76
2022/07/23 09:38:15;;;;;;;2.08;1.10;;;;;;;;;;5032932;28;20742;-76
2022/07/23 09:40:41;;;;;;;4.68;1.45;;;;;;;;;;5033867;28;20211;-74
2022/07/23 09:43:06;;;;;;;4.28;1.23;;;;;;;;;;5031709;28;20239;-72
2022/07/23 09:45:31;;;;;;;3.00;0.98;;;;;;;;;;5032961;28;20219;-76
2022/07/23 09:48:09;;;;;;;3.72;0.93;;;;;;;;;;5033545;28;20212;-75
2022/07/23 09:50:35;;;;;;;7.07;1.10;;;;;;;;;;5032453;28;20307;-77
2022/07/23 09:53:00;;;;;;;3.28;1.05;;;;;;;;;;5034057;28;20231;-76
2022/07/23 09:55:33;;;;;;;4.22;1.20;;;;;;;;;;5033200;28;20701;-76
2022/07/23 09:57:58;;;;;;;1.75;0.93;;;;;;;;;;5031709;28;20670;-76
2022/07/23 10:00:23;;;;;;;13.80;1.83;;;;;;;;;;5032564;28;20731;-78
2022/07/23 10:02:49;;;;;;;3.55;1.17;;;;;;;;;;5012293;28;20579;-72
2022/07/23 10:05:14;;;;;;;4.15;1.00;;;;;;;;;;5012096;28;20672;-72
2022/07/23 10:07:39;;;;;;;23.45;2.75;;;;;;;;;;5012594;28;20256;-77
2022/07/23 10:10:05;;;;;;;4.38;1.20;;;;;;;;;;5013166;28;20231;-74
2022/07/23 10:15:14;;;;;;;2.40;1.02;;;;;;;;;;5023692;28;20214;-79
2022/07/23 10:17:39;;;;;;;5.18;1.27;;;;;;;;;;5011897;28;20207;-77
2022/07/23 10:20:05;;;;;;;2.70;0.82;;;;;;;;;;4996667;28;20226;-73
2022/07/23 10:22:32;;;;;;;2.70;1.00;;;;;;;;;;5013699;28;20201;-79
2022/07/23 10:25:08;;;;;;;2.28;1.00;;;;;;;;;;5013107;28;20695;-74
2022/07/23 10:27:52;;;;;;;3.75;1.00;;;;;;;;;;4995183;28;20212;-76
2022/07/23 10:30:20;;;;;;;6.00;1.20;;;;;;;;;;5037329;28;20211;-78
2022/07/23 10:33:05;;;;;;;4.35;1.10;;;;;;;;;;5052297;28;20296;-76
2022/07/23 10:35:37;;;;;;;2.38;1.00;;;;;;;;;;5052188;28;20575;-77
2022/07/23 10:38:11;;;;;;;3.53;1.23;;;;;;;;;;5050556;28;20207;-76
2022/07/23 10:40:36;;;;;;;4.40;1.25;;;;;;;;;;5050081;28;20238;-77
2022/07/23 10:43:02;;;;;;;4.10;1.05;;;;;;;;;;5050682;28;20775;-74
2022/07/23 10:45:29;;;;;;;1.98;1.10;;;;;;;;;;5051460;28;20245;-75
2022/07/23 10:47:55;;;;;;;12.05;1.80;;;;;;;;;;5041096;28;20235;-76
2022/07/23 10:50:20;;;;;;;2.45;1.20;;;;;;;;;;5044969;28;20681;-79
2022/07/23 10:53:07;;;;;;;2.75;1.10;;;;;;;;;;5052221;28;20683;-80
2022/07/23 10:55:33;;;;;;;1.33;1.02;;;;;;;;;;5051140;28;20206;-77
2022/07/23 10:57:58;;;;;;;4.65;1.48;;;;;;;;;;5052103;28;20233;-71
2022/07/23 11:00:25;;;;;;;5.57;1.92;;;;;;;;;;5021137;28;20228;-71
2022/07/23 11:02:52;;;;;;;3.78;1.30;;;;;;;;;;5046464;28;20243;-79
2022/07/23 11:05:19;;;;;;;3.30;1.40;;;;;;;;;;5051389;28;20215;-77
2022/07/23 11:08:03;;;;;;;4.20;1.40;;;;;;;;;;5051298;28;20588;-77
2022/07/23 11:10:34;;;;;;;5.35;1.52;;;;;;;;;;5051792;28;20219;-80
2022/07/23 11:13:26;;;;;;;4.03;1.70;;;;;;;;;;5052335;28;20214;-78
2022/07/23 11:16:15;;;;;;;1.90;1.30;;;;;;;;;;5043966;28;20207;-84
2022/07/23 11:18:47;;;;;;;2.72;1.30;;;;;;;;;;5050620;28;20677;-77
2022/07/23 11:21:23;;;;;;;3.38;1.30;;;;;;;;;;5051326;28;20340;-76
2022/07/23 11:23:59;;;;;;;5.65;1.50;;;;;;;;;;5051305;28;20226;-79
2022/07/23 11:26:41;;;;;;;2.33;1.42;;;;;;;;;;5016453;28;20206;-75
2022/07/23 11:29:24;;;;;;;5.70;1.48;;;;;;;;;;5050576;28;20799;-77
2022/07/23 11:31:56;;;;;;;3.95;1.50;;;;;;;;;;5051754;28;20705;-73
2022/07/23 11:34:33;;;;;;;1.92;1.35;;;;;;;;;;5051214;28;20207;-84
2022/07/23 11:36:59;;;;;;;3.60;1.55;;;;;;;;;;5050499;28;20597;-81
2022/07/23 11:39:25;;;;;;;4.50;1.48;;;;;;;;;;5033305;28;20215;-77
2022/07/23 11:41:51;;;;;;;3.70;1.17;;;;;;;;;;5033750;28;20223;-86
2022/07/23 11:44:28;;;;;;;4.20;1.60;;;;;;;;;;5050524;28;20234;-78
2022/07/23 11:46:57;;;;;;;3.22;1.55;;;;;;;;;;5033718;28;20238;-74
2022/07/23 11:49:22;;;;;;;4.63;1.45;;;;;;;;;;5050838;28;20203;-75
2022/07/23 11:52:01;;;;;;;7.15;1.70;;;;;;;;;;5047312;28;20217;-73
2022/07/23 11:54:27;;;;;;;8.15;1.65;;;;;;;;;;5050151;28;20672;-75
2022/07/23 11:56:57;;;;;;;4.68;1.60;;;;;;;;;;5049387;28;20330;-71
2022/07/23 11:59:22;;;;;;;4.10;1.95;;;;;;;;;;5050640;28;20227;-77
2022/07/23 12:02:04;;;;;;;5.13;1.60;;;;;;;;;;5038259;28;20215;-71
2022/07/23 12:04:42;;;;;;;4.22;1.40;;;;;;;;;;5032385;28;20217;-70
2022/07/23 12:07:26;;;;;;;4.28;1.27;;;;;;;;;;5032295;28;20306;-71
2022/07/23 12:09:51;;;;;;;7.50;2.05;;;;;;;;;;5051090;28;20252;-71
2022/07/23 12:12:16;;;;;;;4.45;1.70;;;;;;;;;;5049468;28;20215;-71
2022/07/23 12:14:49;;;;;;;4.28;1.73;;;;;;;;;;5051060;28;20218;-71
2022/07/23 12:17:14;;;;;;;2.85;1.50;;;;;;;;;;5050662;28;20658;-73
2022/07/23 12:19:39;;;;;;;3.20;1.65;;;;;;;;;;5032631;28;20207;-78
2022/07/23 12:22:05;;;;;;;3.88;1.45;;;;;;;;;;5050423;28;20249;-74
2022/07/23 12:24:30;;;;;;;2.85;1.60;;;;;;;;;;5033156;28;20701;-72
2022/07/23 12:27:08;;;;;;;4.22;1.65;;;;;;;;;;5049921;28;20206;-70
2022/07/23 12:29:34;;;;;;;2.58;1.40;;;;;;;;;;5050641;28;20218;-71
2022/07/23 12:31:59;;;;;;;6.18;1.98;;;;;;;;;;5044944;28;20298;-69
2022/07/23 12:34:25;;;;;;;5.93;1.90;;;;;;;;;;5027284;28;20378;-70
2022/07/23 12:36:51;;;;;;;5.55;1.92;;;;;;;;;;5019621;28;20298;-73
2022/07/23 12:39:31;;;;;;;2.75;1.45;;;;;;;;;;5016009;28;20246;-71
2022/07/23 12:41:56;;;;;;;5.18;1.80;;;;;;;;;;5032865;28;20251;-71
2022/07/23 12:44:21;;;;;;;3.25;1.55;;;;;;;;;;5024315;28;20238;-70
2022/07/23 12:46:53;;;;;;;23.60;2.45;;;;;;;;;;5024303;28;20228;-71
2022/07/23 12:49:26;;;;;;;6.07;1.80;;;;;;;;;;5036438;28;20204;-74
2022/07/23 12:51:51;;;;;;;3.00;1.67;;;;;;;;;;5008647;28;20282;-70
2022/07/23 12:54:16;;;;;;;5.97;2.05;;;;;;;;;;5025918;28;20242;-73
2022/07/23 12:56:44;;;;;;;3.45;1.90;;;;;;;;;;5020032;28;20209;-73
2022/07/23 12:59:10;;;;;;;3.75;1.67;;;;;;;;;;5019132;28;20281;-75
2022/07/23 13:01:36;;;;;;;2.97;1.73;;;;;;;;;;5019679;28;20614;-76
2022/07/23 13:04:01;;;;;;;27.92;2.58;;;;;;;;;;5023832;28;20285;-68
2022/07/23 13:06:27;;;;;;;2.90;1.52;;;;;;;;;;5027280;28;20219;-76
2022/07/23 13:08:53;;;;;;;2.67;1.70;;;;;;;;;;5043505;28;20206;-72
2022/07/23 13:11:18;;;;;;;3.90;1.70;;;;;;;;;;5023691;28;20226;-79
2022/07/23 13:13:43;;;;;;;12.60;2.17;;;;;;;;;;5002947;28;20255;-73
2022/07/23 13:16:09;;;;;;;4.63;1.85;;;;;;;;;;5027253;28;20246;-70
2022/07/23 13:18:34;;;;;;;5.75;1.75;;;;;;;;;;5021317;28;20218;-72
2022/07/23 13:20:59;;;;;;;5.05;1.90;;;;;;;;;;5019776;28;20656;-72
2022/07/23 13:23:25;;;;;;;6.97;1.90;;;;;;;;;;5020081;28;20222;-71
2022/07/23 13:25:51;;;;;;;4.68;2.00;;;;;;;;;;5006672;28;20211;-73
2022/07/23 13:28:16;;;;;;;4.93;1.75;;;;;;;;;;5010462;28;20242;-74
2022/07/23 13:30:42;;;;;;;4.22;1.80;;;;;;;;;;5029554;28;20242;-74
2022/07/23 13:33:07;;;;;;;5.40;2.00;;;;;;;;;;5028191;28;20250;-79
2022/07/23 13:35:33;;;;;;;12.57;2.17;;;;;;;;;;5045992;28;20662;-77
2022/07/23 13:37:58;;;;;;;3.70;1.80;;;;;;;;;;5047020;28;20690;-78
2022/07/23 13:40:24;;;;;;;2.65;1.65;;;;;;;;;;5044060;28;20265;-78
2022/07/23 13:42:49;;;;;;;5.70;1.83;;;;;;;;;;5038778;28;20234;-76
2022/07/23 13:45:14;;;;;;;3.60;1.75;;;;;;;;;;5038599;28;20324;-77
2022/07/23 13:47:40;;;;;;;4.53;1.63;;;;;;;;;;5040016;28;20237;-75
2022/07/23 13:50:05;;;;;;;3.42;1.50;;;;;;;;;;5046031;28;20211;-78
2022/07/23 13:52:33;;;;;;;2.88;1.40;;;;;;;;;;5046934;28;20207;-74
2022/07/23 13:54:58;;;;;;;4.15;1.67;;;;;;;;;;5030751;28;20555;-80
2022/07/23 13:57:24;;;;;;;4.05;1.65;;;;;;;;;;5008856;28;20214;-78
2022/07/23 13:59:49;;;;;;;5.93;1.90;;;;;;;;;;5027381;28;20326;-75
2022/07/23 14:02:15;;;;;;;7.70;1.60;;;;;;;;;;5009816;28;20378;-81
2022/07/23 14:04:40;;;;;;;3.47;1.70;;;;;;;;;;5029074;28;20207;-90
2022/07/23 14:07:05;;;;;;;3.05;1.70;;;;;;;;;;5031270;28;20212;-86
2022/07/23 14:09:33;;;;;;;5.25;1.88;;;;;;;;;;5024456;28;20214;-80
2022/07/23 14:11:59;;;;;;;7.38;1.77;;;;;;;;;;5040296;28;20641;-79
2022/07/23 14:14:24;;;;;;;3.58;1.45;;;;;;;;;;5039864;28;20214;-84
2022/07/23 14:16:49;;;;;;;8.65;2.03;;;;;;;;;;5041161;28;20208;-80
2022/07/23 14:19:15;;;;;;;4.95;1.77;;;;;;;;;;5030494;28;20215;-78
2022/07/23 14:21:40;;;;;;;4.88;1.77;;;;;;;;;;5032243;28;20212;-87
2022/07/23 14:24:06;;;;;;;4.13;1.98;;;;;;;;;;5038316;28;20215;-74
2022/07/23 14:26:31;;;;;;;2.72;1.67;;;;;;;;;;5024494;28;20206;-77
2022/07/23 14:28:57;;;;;;;7.07;1.98;;;;;;;;;;5035548;28;20243;-75
2022/07/23 14:31:22;;;;;;;3.35;1.63;;;;;;;;;;4999909;28;20292;-77
2022/07/23 14:33:48;;;;;;;4.05;1.70;;;;;;;;;;5023356;28;20274;-83
2022/07/23 14:36:13;;;;;;;3.58;1.85;;;;;;;;;;5026433;28;20212;-83
2022/07/23 14:38:38;;;;;;;4.53;1.73;;;;;;;;;;5031089;28;20218;-75
2022/07/23 14:41:06;;;;;;;5.25;1.90;;;;;;;;;;5039108;28;20259;-68